Time;durP1;ratioP1;P1;durP2;ratioP2;P2;SDS_P1;SDS_P2;PMS_P1;PMS_P2;Temp;Humidity;BMP_temperature;BMP_pressure;BME280_temperature;BME280_humidity;BME280_pressure;Samples;Min_cycle;Max_cycle;Signal;HPM_P1;HPM_P2
2023/12/06 00:00:57;;;;;;;24.13;8.95;;;;;;;;;;4898531;28;20052;-61
2023/12/06 00:03:23;;;;;;;21.13;7.78;;;;;;;;;;4932583;28;20047;-62
2023/12/06 00:05:50;;;;;;;18.42;8.02;;;;;;;;;;4947229;28;20086;-61
2023/12/06 00:08:19;;;;;;;21.95;8.32;;;;;;;;;;4919956;29;20044;-58
2023/12/06 00:10:48;;;;;;;;;;;;;;;;;;4951709;28;20040;-57
2023/12/06 00:13:15;;;;;;;18.17;6.18;;;;;;;;;;4950803;28;20254;-62
2023/12/06 00:15:42;;;;;;;23.88;8.27;;;;;;;;;;4943296;28;20091;-57
2023/12/06 00:18:09;;;;;;;22.02;7.75;;;;;;;;;;4928980;28;20072;-57
2023/12/06 00:20:36;;;;;;;20.25;8.38;;;;;;;;;;4921734;28;20064;-58
2023/12/06 00:23:03;;;;;;;19.42;8.18;;;;;;;;;;4916121;28;20087;-54
2023/12/06 00:25:30;;;;;;;21.45;9.27;;;;;;;;;;4937572;28;20060;-56
2023/12/06 00:27:58;;;;;;;21.15;8.93;;;;;;;;;;4921134;28;20059;-60
2023/12/06 00:30:25;;;;;;;20.42;8.25;;;;;;;;;;4951513;28;20063;-61
2023/12/06 00:32:52;;;;;;;18.30;7.43;;;;;;;;;;4950966;28;20116;-62
2023/12/06 00:35:18;;;;;;;28.35;10.30;;;;;;;;;;4927662;28;20055;-62
2023/12/06 00:37:45;;;;;;;16.02;5.75;;;;;;;;;;4944175;28;20065;-60
2023/12/06 00:40:12;;;;;;;20.60;8.52;;;;;;;;;;4939753;28;20059;-60
2023/12/06 00:42:39;;;;;;;26.73;11.23;;;;;;;;;;4916526;28;20118;-60
2023/12/06 00:45:08;;;;;;;28.98;13.48;;;;;;;;;;4948087;28;20055;-58
2023/12/06 00:47:34;;;;;;;23.67;10.05;;;;;;;;;;4937750;28;20051;-58
2023/12/06 00:50:01;;;;;;;24.67;9.73;;;;;;;;;;4919543;28;20187;-59
2023/12/06 00:52:28;;;;;;;24.10;9.18;;;;;;;;;;4933988;28;20146;-61
2023/12/06 00:54:54;;;;;;;24.35;8.52;;;;;;;;;;4933474;28;20048;-58
2023/12/06 00:57:21;;;;;;;23.10;9.38;;;;;;;;;;4904061;28;20059;-60
2023/12/06 00:59:48;;;;;;;22.30;8.85;;;;;;;;;;4939143;28;20083;-60
2023/12/06 01:02:16;;;;;;;19.60;8.13;;;;;;;;;;4907626;28;20047;-56
2023/12/06 01:04:42;;;;;;;8.93;3.58;;;;;;;;;;4902290;29;20063;-62
2023/12/06 01:07:09;;;;;;;19.98;8.10;;;;;;;;;;4918362;28;20059;-61
2023/12/06 01:09:36;;;;;;;22.48;9.05;;;;;;;;;;4919805;28;20067;-53
2023/12/06 01:12:03;;;;;;;21.95;9.38;;;;;;;;;;4932753;28;20138;-61
2023/12/06 01:14:30;;;;;;;23.75;9.52;;;;;;;;;;4947932;28;20058;-56
2023/12/06 01:16:57;;;;;;;17.17;6.97;;;;;;;;;;4937732;28;20058;-61
2023/12/06 01:19:25;;;;;;;23.20;9.32;;;;;;;;;;4938210;29;20147;-59
2023/12/06 01:21:52;;;;;;;23.02;9.25;;;;;;;;;;4929604;28;20078;-60
2023/12/06 01:24:18;;;;;;;23.50;9.70;;;;;;;;;;4929996;28;20145;-61
2023/12/06 01:26:45;;;;;;;22.35;9.57;;;;;;;;;;4938824;28;20118;-59
2023/12/06 01:29:12;;;;;;;28.50;9.27;;;;;;;;;;4924422;28;20059;-58
2023/12/06 01:31:39;;;;;;;24.85;9.68;;;;;;;;;;4936717;28;20067;-60
2023/12/06 01:34:07;;;;;;;24.48;9.30;;;;;;;;;;4922354;28;20079;-58
2023/12/06 01:36:35;;;;;;;52.63;18.75;;;;;;;;;;4930234;28;20070;-56
2023/12/06 01:39:05;;;;;;;18.73;8.60;;;;;;;;;;4923268;28;20070;-62
2023/12/06 01:41:31;;;;;;;29.15;10.93;;;;;;;;;;4918142;28;20051;-62
2023/12/06 01:43:58;;;;;;;30.50;12.27;;;;;;;;;;4926092;28;20055;-59
2023/12/06 01:46:25;;;;;;;20.92;8.00;;;;;;;;;;4934921;28;20114;-61
2023/12/06 01:48:53;;;;;;;20.00;9.05;;;;;;;;;;4941901;28;20087;-60
2023/12/06 01:51:20;;;;;;;24.80;9.32;;;;;;;;;;4915327;28;20067;-62
2023/12/06 01:53:48;;;;;;;20.60;8.95;;;;;;;;;;4943857;28;20063;-59
2023/12/06 01:56:17;;;;;;;22.45;9.15;;;;;;;;;;4941931;28;20211;-58
2023/12/06 01:58:44;;;;;;;19.95;7.13;;;;;;;;;;4940581;28;20075;-57
2023/12/06 02:01:11;;;;;;;24.05;8.88;;;;;;;;;;4927968;28;20290;-61
2023/12/06 02:03:38;;;;;;;20.77;9.15;;;;;;;;;;4922683;29;20051;-60
2023/12/06 02:06:07;;;;;;;25.60;10.02;;;;;;;;;;4918863;28;20055;-61
2023/12/06 02:08:35;;;;;;;24.42;8.68;;;;;;;;;;4923310;28;20241;-61
2023/12/06 02:11:04;;;;;;;20.33;8.82;;;;;;;;;;4906152;28;20119;-58
2023/12/06 02:13:31;;;;;;;19.95;7.60;;;;;;;;;;4932913;28;20166;-56
2023/12/06 02:15:58;;;;;;;17.83;7.78;;;;;;;;;;4935951;28;20122;-59
2023/12/06 02:18:27;;;;;;;18.25;7.63;;;;;;;;;;4952276;28;20126;-60
2023/12/06 02:20:54;;;;;;;20.08;7.97;;;;;;;;;;4932779;28;20059;-60
2023/12/06 02:23:25;;;;;;;23.60;8.75;;;;;;;;;;4937813;28;20060;-54
2023/12/06 02:25:53;;;;;;;19.80;8.38;;;;;;;;;;4935184;28;20059;-58
2023/12/06 02:28:20;;;;;;;20.90;7.43;;;;;;;;;;4957684;28;20134;-58
2023/12/06 02:30:47;;;;;;;22.20;8.88;;;;;;;;;;4949735;28;20127;-55
2023/12/06 02:33:13;;;;;;;21.08;8.75;;;;;;;;;;4926127;28;20056;-54
2023/12/06 02:35:45;;;;;;;24.75;9.57;;;;;;;;;;4944785;28;20062;-59
2023/12/06 02:38:14;;;;;;;26.20;8.77;;;;;;;;;;4940518;28;20147;-54
2023/12/06 02:40:43;;;;;;;23.10;8.45;;;;;;;;;;4921658;28;20059;-58
2023/12/06 02:43:12;;;;;;;26.17;9.13;;;;;;;;;;4913939;28;20055;-56
2023/12/06 02:45:39;;;;;;;;;;;;;;;;;;4956147;28;20059;-59
2023/12/06 02:48:06;;;;;;;19.50;7.47;;;;;;;;;;4922340;29;19966;-61
2023/12/06 02:50:32;;;;;;;21.17;7.85;;;;;;;;;;4952928;28;20139;-58
2023/12/06 02:52:59;;;;;;;19.05;7.65;;;;;;;;;;4946441;28;20078;-59
2023/12/06 02:55:26;;;;;;;22.48;8.93;;;;;;;;;;4926717;28;20056;-59
2023/12/06 02:57:52;;;;;;;22.25;9.05;;;;;;;;;;4937578;28;20056;-58
2023/12/06 03:00:21;;;;;;;20.38;8.13;;;;;;;;;;4929283;28;20055;-57
2023/12/06 03:02:47;;;;;;;19.15;7.88;;;;;;;;;;4956501;28;20079;-58
2023/12/06 03:05:14;;;;;;;19.90;8.27;;;;;;;;;;4912271;28;20343;-57
2023/12/06 03:07:40;;;;;;;24.63;8.32;;;;;;;;;;4938480;28;20043;-58
2023/12/06 03:10:08;;;;;;;19.35;7.93;;;;;;;;;;4932665;28;20075;-58
2023/12/06 03:12:34;;;;;;;18.38;7.72;;;;;;;;;;4921682;28;20122;-60
2023/12/06 03:15:01;;;;;;;17.10;7.95;;;;;;;;;;4925275;28;20083;-60
2023/12/06 03:17:29;;;;;;;17.00;7.95;;;;;;;;;;4960334;28;20051;-57
2023/12/06 03:19:56;;;;;;;20.70;8.30;;;;;;;;;;4919068;28;20075;-61
2023/12/06 03:22:23;;;;;;;20.60;8.38;;;;;;;;;;4917870;28;21635;-60
2023/12/06 03:24:49;;;;;;;22.90;7.90;;;;;;;;;;4951809;28;20093;-63
2023/12/06 03:27:16;;;;;;;20.40;7.80;;;;;;;;;;4921529;29;20119;-60
2023/12/06 03:29:43;;;;;;;21.92;8.05;;;;;;;;;;4929751;28;20059;-59
2023/12/06 03:32:09;;;;;;;16.85;7.32;;;;;;;;;;4948286;28;20056;-60
2023/12/06 03:34:37;;;;;;;18.80;7.38;;;;;;;;;;4919428;29;20047;-60
2023/12/06 03:37:04;;;;;;;17.92;7.13;;;;;;;;;;4960808;28;20070;-59
2023/12/06 03:39:31;;;;;;;19.80;7.43;;;;;;;;;;4940085;28;20147;-61
2023/12/06 03:41:59;;;;;;;18.63;7.43;;;;;;;;;;4958487;28;20134;-61
2023/12/06 03:44:26;;;;;;;18.08;7.72;;;;;;;;;;4918121;28;20051;-57
2023/12/06 03:46:52;;;;;;;15.88;7.15;;;;;;;;;;4959114;28;20051;-58
2023/12/06 03:49:19;;;;;;;16.45;7.30;;;;;;;;;;4955145;28;20079;-55
2023/12/06 03:51:47;;;;;;;19.75;7.70;;;;;;;;;;4966477;28;20114;-59
2023/12/06 03:54:13;;;;;;;19.13;7.70;;;;;;;;;;4911001;28;20179;-56
2023/12/06 03:56:41;;;;;;;17.40;7.10;;;;;;;;;;4914026;28;20048;-60
2023/12/06 03:59:07;;;;;;;17.17;7.43;;;;;;;;;;4965201;28;20142;-60
2023/12/06 04:01:34;;;;;;;17.98;7.53;;;;;;;;;;4950570;28;20052;-61
2023/12/06 04:04:01;;;;;;;17.58;7.35;;;;;;;;;;4919010;28;20137;-60
2023/12/06 04:06:28;;;;;;;17.15;7.03;;;;;;;;;;4955363;28;20962;-59
2023/12/06 04:08:55;;;;;;;16.38;7.15;;;;;;;;;;4941559;28;20047;-59
2023/12/06 04:11:22;;;;;;;13.68;6.35;;;;;;;;;;4958663;28;20059;-58
2023/12/06 04:13:49;;;;;;;17.30;7.63;;;;;;;;;;4928528;28;20059;-57
2023/12/06 04:16:16;;;;;;;15.68;7.15;;;;;;;;;;4949389;28;20043;-54
2023/12/06 04:18:42;;;;;;;16.70;6.85;;;;;;;;;;4973605;28;20137;-62
2023/12/06 04:21:09;;;;;;;18.27;6.88;;;;;;;;;;4942171;28;20145;-56
2023/12/06 04:23:36;;;;;;;18.55;6.55;;;;;;;;;;4906000;28;20059;-60
2023/12/06 04:26:04;;;;;;;16.60;7.57;;;;;;;;;;4934351;28;20055;-58
2023/12/06 04:28:31;;;;;;;15.43;6.38;;;;;;;;;;4958757;28;20100;-60
2023/12/06 04:30:57;;;;;;;16.45;7.30;;;;;;;;;;4954572;28;20094;-61
2023/12/06 04:33:24;;;;;;;16.83;6.30;;;;;;;;;;4938860;28;20056;-58
2023/12/06 04:35:50;;;;;;;16.48;7.90;;;;;;;;;;4935611;28;20062;-59
2023/12/06 04:38:17;;;;;;;16.15;6.50;;;;;;;;;;4952449;28;20077;-58
2023/12/06 04:40:43;;;;;;;15.23;7.35;;;;;;;;;;4951770;28;20090;-62
2023/12/06 04:43:11;;;;;;;18.00;6.35;;;;;;;;;;4934912;28;20158;-60
2023/12/06 04:45:38;;;;;;;13.68;5.85;;;;;;;;;;4959513;28;20082;-59
2023/12/06 04:48:05;;;;;;;18.88;7.05;;;;;;;;;;4956045;28;20122;-61
2023/12/06 04:50:32;;;;;;;16.08;7.25;;;;;;;;;;4948430;28;20055;-58
2023/12/06 04:52:59;;;;;;;15.07;6.63;;;;;;;;;;4951020;28;20150;-61
2023/12/06 04:55:25;;;;;;;15.80;6.70;;;;;;;;;;4954582;28;20055;-64
2023/12/06 04:57:53;;;;;;;13.10;5.75;;;;;;;;;;4956415;28;20051;-59
2023/12/06 05:00:22;;;;;;;13.75;5.82;;;;;;;;;;4919527;28;20877;-61
2023/12/06 05:02:49;;;;;;;14.00;6.35;;;;;;;;;;4959225;28;20066;-60
2023/12/06 05:05:16;;;;;;;15.23;6.75;;;;;;;;;;4935058;28;20055;-59
2023/12/06 05:07:43;;;;;;;15.98;6.55;;;;;;;;;;4950246;28;20047;-59
2023/12/06 05:10:09;;;;;;;13.63;5.72;;;;;;;;;;4948856;28;20139;-60
2023/12/06 05:12:36;;;;;;;13.43;5.85;;;;;;;;;;4923651;28;20056;-58
2023/12/06 05:15:04;;;;;;;12.80;6.28;;;;;;;;;;4940912;28;20097;-60
2023/12/06 05:17:32;;;;;;;13.80;5.95;;;;;;;;;;4942871;28;20048;-62
2023/12/06 05:19:58;;;;;;;15.85;5.95;;;;;;;;;;4951062;28;20087;-60
2023/12/06 05:22:25;;;;;;;16.13;5.53;;;;;;;;;;4938038;28;20127;-60
2023/12/06 05:24:52;;;;;;;12.93;5.78;;;;;;;;;;4937560;28;20226;-61
2023/12/06 05:27:21;;;;;;;14.93;5.93;;;;;;;;;;4940706;28;20047;-58
2023/12/06 05:29:48;;;;;;;;;;;;;;;;;;4949059;28;20066;-62
2023/12/06 05:32:14;;;;;;;11.13;4.30;;;;;;;;;;4947027;28;19958;-62
2023/12/06 05:34:42;;;;;;;16.00;5.45;;;;;;;;;;4927496;28;20067;-60
2023/12/06 05:37:09;;;;;;;11.95;4.82;;;;;;;;;;4939612;28;20052;-61
2023/12/06 05:39:36;;;;;;;13.32;5.57;;;;;;;;;;4944231;29;20048;-61
2023/12/06 05:42:03;;;;;;;11.07;5.05;;;;;;;;;;4940575;29;20051;-61
2023/12/06 05:44:31;;;;;;;11.77;5.50;;;;;;;;;;4939130;28;20078;-58
2023/12/06 05:46:57;;;;;;;13.70;5.35;;;;;;;;;;4939357;28;20060;-63
2023/12/06 05:49:24;;;;;;;20.15;8.55;;;;;;;;;;4922038;28;20055;-60
2023/12/06 05:51:54;;;;;;;11.98;5.35;;;;;;;;;;4949025;28;20083;-61
2023/12/06 05:54:21;;;;;;;12.73;5.55;;;;;;;;;;4932737;28;20103;-61
2023/12/06 05:56:48;;;;;;;13.32;6.38;;;;;;;;;;4923592;28;20059;-62
2023/12/06 05:59:14;;;;;;;12.52;5.53;;;;;;;;;;4959839;28;20067;-61
2023/12/06 06:01:42;;;;;;;11.45;5.10;;;;;;;;;;4956852;28;20138;-60
2023/12/06 06:04:08;;;;;;;11.73;5.13;;;;;;;;;;4913631;28;20055;-62
2023/12/06 06:06:35;;;;;;;12.95;5.25;;;;;;;;;;4954225;28;20063;-63
2023/12/06 06:09:04;;;;;;;16.75;6.28;;;;;;;;;;4942054;28;20047;-61
2023/12/06 06:11:31;;;;;;;12.35;5.90;;;;;;;;;;4955595;28;20182;-59
2023/12/06 06:13:57;;;;;;;21.10;10.18;;;;;;;;;;4914775;28;20063;-59
2023/12/06 06:16:24;;;;;;;33.13;12.43;;;;;;;;;;4958799;28;20087;-60
2023/12/06 06:18:51;;;;;;;24.08;10.25;;;;;;;;;;4942339;28;20051;-61
2023/12/06 06:21:18;;;;;;;14.70;6.32;;;;;;;;;;4923328;28;20058;-60
2023/12/06 06:23:45;;;;;;;12.25;5.85;;;;;;;;;;4941537;28;20070;-59
2023/12/06 06:26:13;;;;;;;11.13;5.45;;;;;;;;;;4961474;28;20070;-60
2023/12/06 06:28:40;;;;;;;11.55;5.15;;;;;;;;;;4946215;28;20065;-60
2023/12/06 06:31:07;;;;;;;19.17;6.65;;;;;;;;;;4952380;28;20059;-63
2023/12/06 06:33:33;;;;;;;15.18;6.65;;;;;;;;;;4942086;28;20079;-61
2023/12/06 06:36:00;;;;;;;13.95;6.53;;;;;;;;;;4929629;28;20055;-61
2023/12/06 06:38:27;;;;;;;19.45;8.38;;;;;;;;;;4933522;28;20066;-61
2023/12/06 06:40:54;;;;;;;15.27;6.95;;;;;;;;;;4954897;28;20055;-62
2023/12/06 06:43:22;;;;;;;12.85;6.13;;;;;;;;;;4945538;28;20054;-64
2023/12/06 06:45:49;;;;;;;13.27;5.72;;;;;;;;;;4956932;28;20069;-60
2023/12/06 06:48:15;;;;;;;12.27;5.30;;;;;;;;;;4937669;28;20055;-61
2023/12/06 06:50:42;;;;;;;13.13;5.65;;;;;;;;;;4950781;28;20055;-60
2023/12/06 06:53:10;;;;;;;12.27;5.18;;;;;;;;;;4961692;28;20085;-59
2023/12/06 06:55:37;;;;;;;11.40;5.13;;;;;;;;;;4943241;28;20071;-58
2023/12/06 06:58:04;;;;;;;17.70;6.90;;;;;;;;;;4938531;28;20084;-58
2023/12/06 07:00:32;;;;;;;12.00;5.88;;;;;;;;;;4942695;28;20083;-59
2023/12/06 07:02:59;;;;;;;18.77;7.70;;;;;;;;;;4942601;28;20070;-58
2023/12/06 07:05:29;;;;;;;15.63;5.95;;;;;;;;;;4939495;28;20055;-60
2023/12/06 07:07:56;;;;;;;12.10;5.68;;;;;;;;;;4950146;28;20051;-59
2023/12/06 07:10:25;;;;;;;12.10;4.80;;;;;;;;;;4935492;28;20126;-61
2023/12/06 07:12:52;;;;;;;12.98;5.50;;;;;;;;;;4940093;28;20055;-61
2023/12/06 07:15:19;;;;;;;16.10;6.07;;;;;;;;;;4956471;28;20062;-60
2023/12/06 07:17:47;;;;;;;24.95;7.13;;;;;;;;;;4955142;28;20079;-61
2023/12/06 07:20:14;;;;;;;21.25;5.93;;;;;;;;;;4960569;28;20109;-60
2023/12/06 07:22:41;;;;;;;27.25;7.93;;;;;;;;;;4947385;28;20137;-61
2023/12/06 07:25:08;;;;;;;22.52;6.63;;;;;;;;;;4913100;28;20057;-61
2023/12/06 07:27:34;;;;;;;18.77;5.53;;;;;;;;;;4962875;28;20039;-61
2023/12/06 07:30:01;;;;;;;22.52;5.55;;;;;;;;;;4959559;28;20091;-62
2023/12/06 07:32:27;;;;;;;20.05;6.70;;;;;;;;;;4938056;28;20055;-59
2023/12/06 07:34:56;;;;;;;12.05;5.47;;;;;;;;;;4922176;28;20054;-63
2023/12/06 07:37:22;;;;;;;11.30;4.80;;;;;;;;;;4955621;28;20154;-60
2023/12/06 07:39:49;;;;;;;16.00;5.35;;;;;;;;;;4945638;28;20290;-57
2023/12/06 07:42:15;;;;;;;13.18;4.78;;;;;;;;;;4936978;28;20059;-59
2023/12/06 07:44:42;;;;;;;30.75;6.88;;;;;;;;;;4941111;28;20057;-57
2023/12/06 07:47:09;;;;;;;29.27;7.55;;;;;;;;;;4974315;28;20094;-61
2023/12/06 07:49:35;;;;;;;17.02;6.75;;;;;;;;;;4927457;29;20051;-62
2023/12/06 07:52:04;;;;;;;16.17;5.97;;;;;;;;;;4933081;28;20062;-59
2023/12/06 07:54:31;;;;;;;16.02;5.40;;;;;;;;;;4937248;28;20073;-63
2023/12/06 07:56:58;;;;;;;20.55;6.43;;;;;;;;;;4950696;28;20106;-60
2023/12/06 07:59:24;;;;;;;14.20;5.53;;;;;;;;;;4957232;28;20102;-62
2023/12/06 08:01:51;;;;;;;13.10;5.45;;;;;;;;;;4941643;28;20150;-63
2023/12/06 08:04:21;;;;;;;13.43;5.53;;;;;;;;;;4924796;28;20975;-61
2023/12/06 08:06:47;;;;;;;13.40;5.28;;;;;;;;;;4951149;28;20110;-63
2023/12/06 08:09:17;;;;;;;11.73;5.25;;;;;;;;;;4950733;28;20043;-61
2023/12/06 08:11:44;;;;;;;13.52;5.40;;;;;;;;;;4941885;28;20055;-64
2023/12/06 08:14:10;;;;;;;10.50;5.00;;;;;;;;;;4926780;28;20066;-62
2023/12/06 08:16:37;;;;;;;13.38;5.53;;;;;;;;;;4959289;28;20063;-62
2023/12/06 08:19:04;;;;;;;12.30;5.03;;;;;;;;;;4947561;28;20236;-60
2023/12/06 08:21:30;;;;;;;15.23;6.82;;;;;;;;;;4958590;28;20059;-63
2023/12/06 08:23:57;;;;;;;29.42;12.05;;;;;;;;;;4944003;28;20059;-66
2023/12/06 08:26:26;;;;;;;25.58;11.07;;;;;;;;;;4984981;28;20051;-60
2023/12/06 08:28:52;;;;;;;22.08;9.73;;;;;;;;;;4946025;28;20055;-63
2023/12/06 08:31:19;;;;;;;39.97;12.23;;;;;;;;;;4943798;28;20066;-62
2023/12/06 08:33:46;;;;;;;13.38;5.72;;;;;;;;;;4950586;28;20051;-65
2023/12/06 08:36:12;;;;;;;14.25;6.13;;;;;;;;;;4934171;28;20050;-62
2023/12/06 08:38:41;;;;;;;15.10;4.72;;;;;;;;;;4925072;28;20146;-60
2023/12/06 08:41:08;;;;;;;14.85;5.50;;;;;;;;;;4956234;28;20109;-58
2023/12/06 08:43:37;;;;;;;11.13;5.25;;;;;;;;;;4968278;28;20145;-61
2023/12/06 08:46:07;;;;;;;12.75;5.30;;;;;;;;;;4951763;28;20055;-61
2023/12/06 08:48:36;;;;;;;13.63;5.47;;;;;;;;;;4951744;28;20189;-60
2023/12/06 08:51:03;;;;;;;;;;;;;;;;;;4945797;28;20340;-64
2023/12/06 08:53:30;;;;;;;10.95;4.78;;;;;;;;;;4968391;28;19932;-62
2023/12/06 08:55:57;;;;;;;10.98;5.25;;;;;;;;;;4925460;28;20158;-61
2023/12/06 08:58:23;;;;;;;13.50;4.72;;;;;;;;;;4944396;28;20137;-62
2023/12/06 09:00:53;;;;;;;15.35;5.68;;;;;;;;;;4958883;28;20050;-61
2023/12/06 09:03:19;;;;;;;15.57;6.25;;;;;;;;;;4959333;28;20147;-61
2023/12/06 09:05:46;;;;;;;14.48;5.70;;;;;;;;;;4934872;28;20052;-63
2023/12/06 09:08:14;;;;;;;16.42;5.95;;;;;;;;;;4924223;28;20138;-60
2023/12/06 09:10:40;;;;;;;12.32;5.47;;;;;;;;;;4921917;29;20071;-59
2023/12/06 09:13:07;;;;;;;10.73;5.25;;;;;;;;;;4941279;28;20045;-61
2023/12/06 09:15:34;;;;;;;13.40;5.90;;;;;;;;;;4909260;28;20051;-60
2023/12/06 09:18:02;;;;;;;17.20;6.40;;;;;;;;;;4954671;28;20055;-63
2023/12/06 09:20:28;;;;;;;11.00;5.45;;;;;;;;;;4944479;28;20067;-60
2023/12/06 09:22:55;;;;;;;12.88;5.55;;;;;;;;;;4956406;28;20075;-61
2023/12/06 09:25:22;;;;;;;13.00;4.75;;;;;;;;;;4940534;28;20062;-60
2023/12/06 09:27:50;;;;;;;13.63;4.88;;;;;;;;;;4926488;28;20079;-59
2023/12/06 09:30:17;;;;;;;13.15;5.03;;;;;;;;;;4941956;28;20110;-63
2023/12/06 09:32:43;;;;;;;12.88;5.32;;;;;;;;;;4951688;28;20087;-62
2023/12/06 09:35:11;;;;;;;13.20;5.28;;;;;;;;;;4936225;28;20099;-62
2023/12/06 09:37:38;;;;;;;13.38;5.80;;;;;;;;;;4957451;28;20088;-61
2023/12/06 09:40:06;;;;;;;12.40;4.95;;;;;;;;;;4928186;28;20106;-59
2023/12/06 09:42:36;;;;;;;10.30;5.18;;;;;;;;;;4945921;28;20063;-62
2023/12/06 09:45:06;;;;;;;11.02;4.95;;;;;;;;;;4918529;29;20059;-63
2023/12/06 09:47:34;;;;;;;13.57;5.20;;;;;;;;;;4957064;28;20134;-60
2023/12/06 09:50:01;;;;;;;13.50;5.28;;;;;;;;;;4951488;28;20067;-62
2023/12/06 09:52:29;;;;;;;12.30;5.25;;;;;;;;;;4923509;28;20066;-63
2023/12/06 09:54:57;;;;;;;10.98;5.03;;;;;;;;;;4920917;28;20066;-60
2023/12/06 09:57:24;;;;;;;11.23;4.93;;;;;;;;;;4938265;28;20052;-61
2023/12/06 09:59:50;;;;;;;10.35;4.10;;;;;;;;;;4940936;29;20103;-63
2023/12/06 10:02:17;;;;;;;16.58;5.18;;;;;;;;;;4953939;28;20119;-62
2023/12/06 10:04:44;;;;;;;14.77;4.72;;;;;;;;;;4911003;28;20055;-60
2023/12/06 10:07:10;;;;;;;23.42;6.85;;;;;;;;;;4946450;29;20086;-62
2023/12/06 10:09:38;;;;;;;13.85;5.57;;;;;;;;;;4961208;28;20081;-59
2023/12/06 10:12:09;;;;;;;15.80;6.20;;;;;;;;;;4957843;28;20055;-60
2023/12/06 10:14:36;;;;;;;14.60;5.18;;;;;;;;;;4931873;28;20158;-60
2023/12/06 10:17:03;;;;;;;15.10;5.50;;;;;;;;;;4942122;28;20119;-62
2023/12/06 10:19:31;;;;;;;14.30;5.35;;;;;;;;;;4940582;28;20115;-61
2023/12/06 10:22:00;;;;;;;15.43;4.97;;;;;;;;;;4943959;28;20059;-62
2023/12/06 10:24:28;;;;;;;15.82;5.53;;;;;;;;;;4938255;28;20071;-59
2023/12/06 10:27:03;;;;;;;13.90;5.10;;;;;;;;;;4923895;28;20110;-61
2023/12/06 10:29:30;;;;;;;15.90;5.97;;;;;;;;;;4966363;28;20113;-60
2023/12/06 10:31:59;;;;;;;14.05;5.45;;;;;;;;;;4942604;29;20161;-60
2023/12/06 10:34:27;;;;;;;14.85;5.18;;;;;;;;;;4937453;28;20122;-61
2023/12/06 10:36:55;;;;;;;11.40;4.80;;;;;;;;;;4956389;28;20079;-62
2023/12/06 10:39:22;;;;;;;13.27;4.60;;;;;;;;;;4940815;28;20059;-60
2023/12/06 10:41:50;;;;;;;11.48;4.72;;;;;;;;;;4956723;28;20105;-60
2023/12/06 10:44:19;;;;;;;14.65;4.88;;;;;;;;;;4944392;28;20140;-59
2023/12/06 10:46:48;;;;;;;12.02;5.18;;;;;;;;;;4951024;28;20055;-59
2023/12/06 10:49:16;;;;;;;12.38;4.43;;;;;;;;;;4956895;28;20038;-61
2023/12/06 10:51:44;;;;;;;9.52;4.30;;;;;;;;;;4931691;28;20059;-62
2023/12/06 10:54:13;;;;;;;9.45;4.22;;;;;;;;;;4919032;28;20154;-61
2023/12/06 10:56:40;;;;;;;13.43;3.85;;;;;;;;;;4947930;28;20170;-60
2023/12/06 10:59:10;;;;;;;12.77;4.85;;;;;;;;;;4944720;28;20126;-59
2023/12/06 11:01:39;;;;;;;13.52;5.25;;;;;;;;;;4956072;28;20051;-60
2023/12/06 11:04:09;;;;;;;13.40;4.82;;;;;;;;;;4926815;28;20068;-60
2023/12/06 11:06:43;;;;;;;14.07;5.05;;;;;;;;;;4938380;28;20055;-59
2023/12/06 11:09:25;;;;;;;14.45;4.72;;;;;;;;;;4944113;28;20054;-59
2023/12/06 11:12:07;;;;;;;15.45;5.78;;;;;;;;;;4958782;28;20186;-61
2023/12/06 11:14:55;;;;;;;11.75;4.78;;;;;;;;;;4941668;28;20062;-62
2023/12/06 11:17:36;;;;;;;11.20;4.93;;;;;;;;;;4943648;28;20105;-60
2023/12/06 11:20:06;;;;;;;14.68;5.10;;;;;;;;;;4942031;28;20082;-63
2023/12/06 11:22:35;;;;;;;12.57;5.30;;;;;;;;;;4943100;28;20082;-62
2023/12/06 11:25:03;;;;;;;12.80;4.97;;;;;;;;;;4942121;28;20074;-61
2023/12/06 11:27:30;;;;;;;11.50;4.90;;;;;;;;;;4957126;28;20066;-62
2023/12/06 11:29:58;;;;;;;17.25;6.07;;;;;;;;;;4939252;28;20058;-63
2023/12/06 11:32:40;;;;;;;;;;;;;;;;;;4940585;28;20177;-61
2023/12/06 11:35:08;;;;;;;13.25;4.85;;;;;;;;;;4959372;28;19926;-62
2023/12/06 11:37:35;;;;;;;16.10;5.35;;;;;;;;;;4946689;28;20113;-64
2023/12/06 11:40:18;;;;;;;11.93;5.28;;;;;;;;;;4950455;28;20047;-63
2023/12/06 11:42:53;;;;;;;11.88;4.70;;;;;;;;;;4936368;28;20086;-63
2023/12/06 11:45:25;;;;;;;16.95;6.00;;;;;;;;;;4946226;28;20059;-63
2023/12/06 11:47:53;;;;;;;14.35;6.03;;;;;;;;;;4957254;28;20138;-60
2023/12/06 11:50:21;;;;;;;15.27;5.82;;;;;;;;;;4938010;28;20100;-60
2023/12/06 11:52:49;;;;;;;12.48;5.65;;;;;;;;;;4963511;28;20047;-63
2023/12/06 11:55:20;;;;;;;14.02;5.93;;;;;;;;;;4945073;28;20047;-62
2023/12/06 11:58:01;;;;;;;14.77;5.72;;;;;;;;;;4956588;28;20256;-62
2023/12/06 12:00:29;;;;;;;13.20;5.28;;;;;;;;;;4946996;28;20059;-62
2023/12/06 12:02:58;;;;;;;16.83;6.50;;;;;;;;;;4955146;28;20055;-62
2023/12/06 12:05:27;;;;;;;13.50;5.22;;;;;;;;;;4940638;28;20061;-61
2023/12/06 12:07:56;;;;;;;;;;;;;;;;;;4931943;28;20118;-62
2023/12/06 12:10:23;;;;;;;17.17;6.40;;;;;;;;;;4942030;28;19938;-63
2023/12/06 12:12:50;;;;;;;13.38;5.40;;;;;;;;;;4942308;28;20133;-61
2023/12/06 12:15:17;;;;;;;10.80;4.90;;;;;;;;;;4934709;28;20062;-62
2023/12/06 12:17:45;;;;;;;15.00;6.75;;;;;;;;;;4949751;28;20059;-61
2023/12/06 12:20:14;;;;;;;12.20;5.10;;;;;;;;;;4953227;28;20062;-63
2023/12/06 12:22:47;;;;;;;13.68;5.50;;;;;;;;;;4971933;28;20043;-61
2023/12/06 12:25:14;;;;;;;12.20;4.70;;;;;;;;;;4942911;28;20059;-58
2023/12/06 12:27:41;;;;;;;13.00;5.40;;;;;;;;;;4944509;28;20142;-63
2023/12/06 12:30:09;;;;;;;11.98;4.53;;;;;;;;;;4940735;28;20103;-61
2023/12/06 12:32:38;;;;;;;11.30;5.63;;;;;;;;;;4938671;28;20146;-61
2023/12/06 12:35:06;;;;;;;11.25;3.67;;;;;;;;;;4943538;28;20205;-60
2023/12/06 12:37:35;;;;;;;14.95;5.97;;;;;;;;;;4951752;28;20059;-61
2023/12/06 12:40:03;;;;;;;;;;;;;;;;;;4936740;28;20201;-60
2023/12/06 12:42:30;;;;;;;12.93;5.25;;;;;;;;;;4943991;28;19926;-62
2023/12/06 12:44:57;;;;;;;11.38;5.00;;;;;;;;;;4936956;28;20081;-62
2023/12/06 12:47:24;;;;;;;12.73;4.65;;;;;;;;;;4950973;28;20053;-60
2023/12/06 12:49:54;;;;;;;12.05;4.93;;;;;;;;;;4948628;28;20085;-60
2023/12/06 12:52:21;;;;;;;16.05;6.85;;;;;;;;;;4942933;29;20051;-60
2023/12/06 12:54:51;;;;;;;12.98;5.95;;;;;;;;;;4943898;28;20055;-62
2023/12/06 12:57:19;;;;;;;13.93;6.10;;;;;;;;;;4934358;28;20138;-60
2023/12/06 12:59:45;;;;;;;12.55;5.72;;;;;;;;;;4950554;28;20059;-60
2023/12/06 13:02:13;;;;;;;11.05;4.50;;;;;;;;;;4935489;28;20059;-60
2023/12/06 13:04:39;;;;;;;10.02;4.78;;;;;;;;;;4953691;28;20081;-61
2023/12/06 13:07:06;;;;;;;9.43;4.10;;;;;;;;;;4943719;28;20059;-61
2023/12/06 13:09:33;;;;;;;16.73;4.85;;;;;;;;;;4959464;28;20051;-63
2023/12/06 13:12:02;;;;;;;11.25;4.68;;;;;;;;;;4942508;28;20153;-62
2023/12/06 13:14:29;;;;;;;11.57;5.10;;;;;;;;;;4939626;28;20279;-61
2023/12/06 13:16:57;;;;;;;14.23;4.97;;;;;;;;;;4978414;28;20120;-62
2023/12/06 13:19:24;;;;;;;16.52;4.97;;;;;;;;;;4928155;29;20047;-60
2023/12/06 13:21:50;;;;;;;12.32;4.70;;;;;;;;;;4926387;28;20146;-60
2023/12/06 13:24:17;;;;;;;14.15;5.15;;;;;;;;;;4903199;28;20089;-62
2023/12/06 13:26:44;;;;;;;11.48;3.85;;;;;;;;;;4938238;28;20143;-64
2023/12/06 13:29:12;;;;;;;9.75;4.07;;;;;;;;;;4942693;28;20074;-62
2023/12/06 13:31:39;;;;;;;14.48;4.47;;;;;;;;;;4963411;28;20078;-61
2023/12/06 13:34:06;;;;;;;14.05;4.40;;;;;;;;;;4930210;28;20115;-62
2023/12/06 13:36:33;;;;;;;10.55;4.50;;;;;;;;;;4940077;28;20047;-61
2023/12/06 13:38:59;;;;;;;10.05;3.92;;;;;;;;;;4941872;28;20197;-61
2023/12/06 13:41:26;;;;;;;17.88;4.38;;;;;;;;;;4943714;28;20051;-61
2023/12/06 13:43:55;;;;;;;9.68;4.40;;;;;;;;;;4924876;28;20226;-58
2023/12/06 13:46:23;;;;;;;9.57;4.13;;;;;;;;;;4961509;28;20090;-61
2023/12/06 13:48:50;;;;;;;11.10;4.07;;;;;;;;;;4957866;28;20087;-62
2023/12/06 13:51:16;;;;;;;8.07;3.08;;;;;;;;;;4958724;28;20058;-59
2023/12/06 13:53:43;;;;;;;15.20;3.78;;;;;;;;;;4951719;28;20106;-59
2023/12/06 13:56:10;;;;;;;9.75;3.75;;;;;;;;;;4932774;28;20052;-59
2023/12/06 13:58:38;;;;;;;10.20;3.50;;;;;;;;;;4942140;28;20138;-61
2023/12/06 14:01:07;;;;;;;7.70;3.17;;;;;;;;;;4969789;28;20154;-61
2023/12/06 14:03:35;;;;;;;10.23;3.05;;;;;;;;;;4947542;28;20043;-59
2023/12/06 14:06:02;;;;;;;8.02;3.40;;;;;;;;;;4914416;28;20055;-59
2023/12/06 14:08:29;;;;;;;8.60;3.35;;;;;;;;;;4941751;28;20047;-62
2023/12/06 14:10:56;;;;;;;8.90;3.72;;;;;;;;;;4946973;28;20059;-60
2023/12/06 14:13:23;;;;;;;6.82;3.03;;;;;;;;;;4958891;28;20062;-63
2023/12/06 14:15:49;;;;;;;10.57;3.45;;;;;;;;;;4948751;28;20105;-62
2023/12/06 14:18:16;;;;;;;12.13;4.07;;;;;;;;;;4961757;28;20074;-61
2023/12/06 14:20:46;;;;;;;13.48;4.32;;;;;;;;;;4944591;28;20074;-61
2023/12/06 14:23:13;;;;;;;7.68;3.45;;;;;;;;;;4942717;28;20074;-62
2023/12/06 14:25:41;;;;;;;8.55;3.78;;;;;;;;;;4942855;28;20051;-60
2023/12/06 14:28:08;;;;;;;10.48;3.13;;;;;;;;;;4933831;28;20119;-61
2023/12/06 14:30:34;;;;;;;8.82;3.40;;;;;;;;;;4955596;28;20047;-61
2023/12/06 14:33:01;;;;;;;9.95;3.45;;;;;;;;;;4961591;28;20051;-60
2023/12/06 14:35:28;;;;;;;9.50;3.67;;;;;;;;;;4937747;28;20114;-61